Time;durP1;ratioP1;P1;durP2;ratioP2;P2;SDS_P1;SDS_P2;PMS_P1;PMS_P2;Temp;Humidity;BMP_temperature;BMP_pressure;BME280_temperature;BME280_humidity;BME280_pressure;Samples;Min_cycle;Max_cycle;Signal;HPM_P1;HPM_P2
2022/12/28 00:01:59;;;;;;;5.97;1.73;;;;;;;9.81;44.98;102458.56;5036583;28;20409;-78
2022/12/28 00:04:24;;;;;;;6.03;2.10;;;;;;;10.06;44.96;102449.50;5044207;28;20387;-78
2022/12/28 00:06:51;;;;;;;6.50;2.20;;;;;;;10.12;45.14;102454.31;5057231;28;20399;-78
2022/12/28 00:09:16;;;;;;;4.57;1.70;;;;;;;9.82;44.45;102452.31;5053077;28;20401;-78
2022/12/28 00:11:42;;;;;;;3.88;1.65;;;;;;;9.75;44.78;102458.06;5055624;28;20466;-78
2022/12/28 00:14:07;;;;;;;6.33;1.67;;;;;;;9.84;44.64;102455.66;5053240;28;20413;-78
2022/12/28 00:16:38;;;;;;;5.77;2.30;;;;;;;10.02;44.20;102448.06;5054147;28;20434;-78
2022/12/28 00:19:06;;;;;;;5.72;1.73;;;;;;;9.74;44.65;102455.53;5053078;28;20407;-77
2022/12/28 00:21:31;;;;;;;5.05;1.70;;;;;;;9.68;44.68;102462.16;5052976;28;20377;-77
2022/12/28 00:23:59;;;;;;;4.75;1.70;;;;;;;9.66;44.55;102473.84;5053775;28;20377;-78
2022/12/28 00:26:26;;;;;;;6.00;2.17;;;;;;;9.71;44.98;102475.19;5054388;28;20446;-77
2022/12/28 00:28:52;;;;;;;6.55;1.98;;;;;;;9.87;44.61;102466.88;5044904;28;20389;-77
2022/12/28 00:31:17;;;;;;;5.75;2.00;;;;;;;9.84;44.56;102460.97;5052439;28;20404;-77
2022/12/28 00:33:43;;;;;;;6.80;2.50;;;;;;;9.95;44.79;102474.19;5051957;28;20404;-78
2022/12/28 00:36:12;;;;;;;5.35;1.70;;;;;;;9.65;44.90;102475.69;5050686;28;20396;-77
2022/12/28 00:38:38;;;;;;;5.13;1.95;;;;;;;9.66;45.14;102487.09;5050848;28;20927;-77
2022/12/28 00:41:04;;;;;;;5.07;1.80;;;;;;;9.64;44.94;102496.97;5052197;28;20384;-77
2022/12/28 00:43:30;;;;;;;5.60;2.13;;;;;;;9.67;45.38;102489.63;5050308;28;22137;-76
2022/12/28 00:45:56;;;;;;;5.43;2.13;;;;;;;9.63;45.35;102477.56;5049797;28;20389;-76
2022/12/28 00:48:21;;;;;;;6.13;2.27;;;;;;;9.77;45.25;102474.69;5050500;28;20735;-77
2022/12/28 00:50:47;;;;;;;6.77;2.30;;;;;;;9.89;44.84;102478.19;5047308;28;20390;-76
2022/12/28 00:53:13;;;;;;;7.90;2.92;;;;;;;9.75;44.67;102478.44;5050937;28;20440;-77
2022/12/28 00:55:39;;;;;;;6.20;2.40;;;;;;;9.69;44.86;102479.75;5050696;28;20447;-76
2022/12/28 00:58:05;;;;;;;6.97;2.30;;;;;;;9.60;44.97;102474.31;5051236;28;20380;-76
2022/12/28 01:00:32;;;;;;;7.35;2.40;;;;;;;9.58;45.13;102479.75;5049492;28;20758;-76
2022/12/28 01:02:57;;;;;;;5.68;2.20;;;;;;;9.60;44.76;102469.91;5047105;28;20396;-76
2022/12/28 01:05:23;;;;;;;7.20;2.60;;;;;;;9.56;44.98;102477.22;5049154;28;20396;-77
2022/12/28 01:07:49;;;;;;;7.07;2.03;;;;;;;9.28;45.15;102467.94;5050294;28;20394;-78
2022/12/28 01:10:15;;;;;;;7.20;3.00;;;;;;;9.26;45.43;102467.22;5043330;28;20736;-77
2022/12/28 01:12:40;;;;;;;5.63;2.10;;;;;;;9.29;45.86;102466.13;5051208;28;20820;-77
2022/12/28 01:15:09;;;;;;;6.67;2.43;;;;;;;9.35;45.61;102473.59;5050041;28;20758;-78
2022/12/28 01:17:34;;;;;;;6.78;2.00;;;;;;;9.42;45.03;102471.31;5051107;28;20418;-77
2022/12/28 01:20:00;;;;;;;5.03;2.20;;;;;;;9.51;45.32;102471.44;5049454;28;20715;-77
2022/12/28 01:22:26;;;;;;;5.60;2.33;;;;;;;9.49;44.61;102470.72;5049246;28;20924;-77
2022/12/28 01:24:51;;;;;;;7.45;2.33;;;;;;;9.30;45.23;102475.75;5048962;28;20397;-76
2022/12/28 01:27:18;;;;;;;5.60;2.13;;;;;;;9.26;45.02;102480.44;5054581;28;20821;-77
2022/12/28 01:29:44;;;;;;;8.33;2.50;;;;;;;9.34;44.87;102483.31;5070827;28;20366;-77
2022/12/28 01:32:09;;;;;;;6.53;2.50;;;;;;;9.18;45.04;102473.09;5051005;28;20403;-77
2022/12/28 01:34:35;;;;;;;5.90;2.30;;;;;;;9.45;44.99;102466.63;5050252;28;20392;-77
2022/12/28 01:37:00;;;;;;;7.43;2.42;;;;;;;9.38;44.99;102476.00;5049133;28;20400;-77
2022/12/28 01:39:26;;;;;;;4.37;1.83;;;;;;;9.18;45.36;102467.81;5052235;28;20491;-78
2022/12/28 01:41:51;;;;;;;6.67;2.20;;;;;;;9.17;45.77;102466.13;5050577;28;20376;-77
2022/12/28 01:44:23;;;;;;;7.47;2.70;;;;;;;9.15;45.79;102469.84;5049370;28;20442;-77
2022/12/28 01:46:52;;;;;;;7.68;2.92;;;;;;;9.09;45.66;102470.31;5050465;28;20490;-78
2022/12/28 01:49:31;;;;;;;5.97;2.50;;;;;;;9.23;45.73;102470.09;5049755;28;20591;-78
2022/12/28 01:51:57;;;;;;;6.43;2.33;;;;;;;9.30;45.54;102478.41;5050070;28;20416;-78
2022/12/28 01:54:25;;;;;;;6.20;2.20;;;;;;;9.19;46.08;102469.47;5051219;28;20380;-78
2022/12/28 01:56:52;;;;;;;7.57;2.70;;;;;;;9.24;45.91;102470.91;5049017;28;20392;-78
2022/12/28 01:59:20;;;;;;;5.20;2.15;;;;;;;9.16;45.63;102463.59;5050746;28;20385;-77
2022/12/28 02:01:46;;;;;;;5.75;2.60;;;;;;;9.27;45.62;102465.41;5050856;28;20392;-78
2022/12/28 02:04:12;;;;;;;4.75;1.90;;;;;;;9.40;45.19;102473.22;5050594;28;20388;-77
2022/12/28 02:06:37;;;;;;;6.88;2.63;;;;;;;9.49;45.63;102473.38;5052415;28;20376;-78
2022/12/28 02:09:12;;;;;;;8.18;2.80;;;;;;;9.56;45.18;102473.72;5056866;28;20372;-78
2022/12/28 02:11:37;;;;;;;6.88;2.85;;;;;;;9.62;45.53;102469.78;5057069;28;20399;-78
2022/12/28 02:14:05;;;;;;;7.15;2.97;;;;;;;9.69;45.25;102478.94;5056016;28;20404;-78
2022/12/28 02:16:30;;;;;;;6.77;3.00;;;;;;;9.77;44.92;102476.50;5053781;28;20837;-77
2022/12/28 02:18:56;;;;;;;5.83;2.43;;;;;;;9.74;44.85;102472.28;5054570;28;20395;-78
2022/12/28 02:21:37;;;;;;;5.43;2.83;;;;;;;9.58;45.49;102474.47;5054387;28;20388;-77
2022/12/28 02:24:17;;;;;;;5.22;2.58;;;;;;;9.32;45.49;102464.09;5075558;28;20750;-78
2022/12/28 02:27:00;;;;;;;7.78;2.80;;;;;;;9.42;45.85;102466.88;5055061;28;20388;-77
2022/12/28 02:29:51;;;;;;;6.73;2.50;;;;;;;9.38;45.63;102455.69;5056212;28;20540;-78
2022/12/28 02:32:28;;;;;;;4.78;2.40;;;;;;;9.25;45.27;102452.28;5053078;28;20408;-78
2022/12/28 02:35:01;;;;;;;5.80;2.90;;;;;;;9.28;45.71;102438.81;5054197;28;20860;-78
2022/12/28 02:37:35;;;;;;;5.90;2.50;;;;;;;9.36;45.47;102438.22;5054921;28;20393;-78
2022/12/28 02:40:07;;;;;;;6.32;2.97;;;;;;;9.41;45.15;102438.72;5055205;28;20466;-77
2022/12/28 02:42:35;;;;;;;7.05;2.88;;;;;;;9.29;45.32;102423.78;5054827;28;20377;-78
2022/12/28 02:51:32;;;;;;;6.05;2.70;;;;;;;9.01;45.72;102425.91;5053123;28;20421;-78
2022/12/28 02:56:06;;;;;;;5.75;2.55;;;;;;;8.97;45.86;102425.31;4987279;28;20425;-78
2022/12/28 02:57:05;;;;;;;6.35;2.25;;;;;;;9.04;45.67;102433.63;5054861;28;20380;-77
2022/12/28 02:59:42;;;;;;;5.07;2.42;;;;;;;9.10;45.63;102424.38;5054305;28;20387;-77
2022/12/28 03:02:43;;;;;;;7.70;2.65;;;;;;;9.11;45.55;102432.19;5053469;28;20399;-77
2022/12/28 03:05:09;;;;;;;6.13;2.50;;;;;;;9.01;45.31;102427.72;5046758;28;20405;-77
2022/12/28 03:10:57;;;;;;;7.43;2.80;;;;;;;9.09;45.46;102439.41;5045738;28;20891;-78
2022/12/28 03:13:42;;;;;;;6.70;2.60;;;;;;;9.10;45.52;102440.25;5054198;28;20415;-78
2022/12/28 03:16:22;;;;;;;8.85;3.60;;;;;;;8.99;45.39;102441.06;5047536;28;20416;-78
2022/12/28 03:33:05;;;;;;;8.05;3.00;;;;;;;8.98;44.91;102437.59;5054498;28;20834;-76
2022/12/28 03:36:02;;;;;;;7.90;3.27;;;;;;;9.17;45.32;102449.41;5053289;28;20436;-77
2022/12/28 03:38:46;;;;;;;8.73;3.42;;;;;;;9.30;44.97;102455.41;5043576;28;20398;-77
2022/12/28 03:41:18;;;;;;;6.97;2.72;;;;;;;9.46;44.22;102457.72;5052298;28;20384;-77
2022/12/28 03:43:59;;;;;;;8.32;3.10;;;;;;;9.61;44.76;102460.97;5052655;28;20808;-77
2022/12/28 03:46:28;;;;;;;6.77;2.93;;;;;;;9.53;44.83;102458.09;5051669;28;20400;-78
2022/12/28 03:48:56;;;;;;;8.13;2.83;;;;;;;9.37;44.91;102448.69;5051847;28;20778;-77
2022/12/28 03:51:23;;;;;;;8.02;3.17;;;;;;;9.25;44.85;102457.56;5050811;28;20457;-77
2022/12/28 03:53:49;;;;;;;8.60;3.95;;;;;;;9.09;45.15;102455.28;5052156;28;20404;-77
2022/12/28 03:56:20;;;;;;;8.88;4.78;;;;;;;9.14;45.03;102454.91;5052719;28;20867;-77
2022/12/28 03:58:47;;;;;;;10.13;5.07;;;;;;;9.24;44.78;102452.41;5041741;28;20393;-77
2022/12/28 04:01:12;;;;;;;8.52;4.60;;;;;;;9.38;44.52;102452.16;5048098;28;20864;-77
2022/12/28 04:03:39;;;;;;;8.80;4.20;;;;;;;9.40;44.40;102466.16;5052233;28;20381;-77
2022/12/28 04:06:04;;;;;;;24.30;12.70;;;;;;;9.46;44.17;102465.66;5051294;28;20442;-76
2022/12/28 04:08:31;;;;;;;15.13;8.13;;;;;;;9.40;44.49;102466.16;5053740;28;20389;-77
2022/12/28 04:11:00;;;;;;;10.32;5.20;;;;;;;9.24;44.85;102458.56;5050543;28;20400;-78
2022/12/28 04:13:30;;;;;;;8.63;3.88;;;;;;;9.03;45.00;102470.78;5051226;28;20451;-78
2022/12/28 04:15:58;;;;;;;10.68;4.35;;;;;;;8.89;45.10;102464.72;5050335;28;20408;-77
2022/12/28 04:18:23;;;;;;;11.43;4.70;;;;;;;8.84;45.06;102460.72;5047244;28;20399;-77
2022/12/28 04:20:49;;;;;;;13.40;5.60;;;;;;;8.77;45.22;102463.84;5052030;28;20383;-77
2022/12/28 04:23:14;;;;;;;8.87;3.97;;;;;;;8.82;45.24;102468.78;5046765;28;20566;-77
2022/12/28 04:25:40;;;;;;;9.57;5.67;;;;;;;8.92;44.95;102466.31;5033415;28;20451;-77
2022/12/28 04:28:05;;;;;;;7.97;3.80;;;;;;;8.98;44.93;102476.41;5033161;28;20374;-76
2022/12/28 04:30:31;;;;;;;7.67;3.80;;;;;;;8.99;44.83;102484.22;5042644;28;20383;-76
2022/12/28 04:32:56;;;;;;;11.68;6.45;;;;;;;9.03;44.93;102479.56;5051251;28;20404;-76
2022/12/28 04:35:21;;;;;;;7.73;3.50;;;;;;;8.97;44.83;102480.84;5050306;28;20392;-77
2022/12/28 04:37:47;;;;;;;8.40;3.60;;;;;;;9.06;44.53;102484.63;5051351;28;20381;-77
2022/12/28 04:40:13;;;;;;;17.15;7.43;;;;;;;9.09;44.39;102487.03;5051272;28;20800;-78
2022/12/28 04:42:38;;;;;;;13.07;7.33;;;;;;;9.03;44.35;102490.13;5051838;28;20396;-77
2022/12/28 04:45:04;;;;;;;22.00;11.50;;;;;;;8.99;44.82;102492.16;5050419;28;20396;-77
2022/12/28 04:47:29;;;;;;;14.50;7.28;;;;;;;8.88;44.61;102497.44;5049847;28;20481;-77
2022/12/28 04:49:55;;;;;;;13.70;7.40;;;;;;;8.79;44.97;102508.69;5051692;28;20535;-77
2022/12/28 04:52:21;;;;;;;12.65;7.60;;;;;;;8.65;45.05;102493.84;5050503;28;20861;-78
2022/12/28 04:54:47;;;;;;;8.77;3.28;;;;;;;8.77;44.51;102502.69;5050903;28;20377;-76
2022/12/28 04:57:12;;;;;;;8.77;4.10;;;;;;;8.83;44.22;102501.38;5051022;28;20479;-76
2022/12/28 04:59:39;;;;;;;10.13;4.88;;;;;;;8.92;44.03;102508.63;5048959;28;20716;-77
2022/12/28 05:02:05;;;;;;;17.33;15.23;;;;;;;8.95;43.69;102509.22;5047575;28;20933;-77
2022/12/28 05:04:31;;;;;;;10.80;5.38;;;;;;;8.92;44.03;102506.81;5049936;28;20399;-79
2022/12/28 05:06:56;;;;;;;11.10;5.15;;;;;;;8.91;43.91;102518.38;5050380;28;20381;-76
2022/12/28 05:09:22;;;;;;;13.10;5.50;;;;;;;8.77;44.68;102518.53;5050953;28;20388;-77
2022/12/28 05:11:48;;;;;;;8.68;4.82;;;;;;;8.70;45.02;102526.06;5050470;28;20479;-77
2022/12/28 05:14:13;;;;;;;11.60;5.80;;;;;;;8.72;45.61;102540.03;5048731;28;20417;-77
2022/12/28 05:16:39;;;;;;;12.03;5.73;;;;;;;8.60;45.59;102525.88;5049371;28;20481;-77
2022/12/28 05:19:04;;;;;;;9.63;4.80;;;;;;;8.63;45.34;102527.47;5048845;28;20461;-76
2022/12/28 05:21:30;;;;;;;9.45;6.13;;;;;;;8.70;45.82;102535.81;5051040;28;20399;-77
2022/12/28 05:23:56;;;;;;;10.73;8.20;;;;;;;8.74;45.48;102535.47;5049748;28;20392;-77
2022/12/28 05:26:24;;;;;;;11.50;6.85;;;;;;;8.79;45.54;102535.13;5050944;28;20384;-77
2022/12/28 05:28:50;;;;;;;9.55;5.30;;;;;;;8.73;45.83;102543.50;5056740;28;20436;-77
2022/12/28 05:31:18;;;;;;;13.80;6.87;;;;;;;8.67;46.05;102536.03;5042595;28;20729;-76
2022/12/28 05:33:44;;;;;;;9.90;5.78;;;;;;;8.67;45.85;102536.03;5046937;28;20416;-77
2022/12/28 05:36:13;;;;;;;10.27;6.10;;;;;;;8.69;45.77;102545.53;5050683;28;20450;-78
2022/12/28 05:38:39;;;;;;;6.78;3.75;;;;;;;8.67;45.40;102538.69;5051024;28;20384;-78
2022/12/28 05:41:12;;;;;;;10.50;5.95;;;;;;;8.57;45.80;102536.72;5051688;28;20489;-77
2022/12/28 05:43:38;;;;;;;14.20;9.10;;;;;;;8.55;45.89;102535.13;5051118;28;20385;-77
2022/12/28 05:46:06;;;;;;;14.13;6.90;;;;;;;8.60;45.71;102551.50;5053455;28;20817;-77
2022/12/28 05:48:34;;;;;;;13.93;6.10;;;;;;;8.56;46.17;102542.94;5054484;28;20388;-77
2022/12/28 05:51:05;;;;;;;10.07;5.07;;;;;;;8.56;45.69;102547.38;5053819;28;21210;-77
2022/12/28 05:53:32;;;;;;;12.13;5.73;;;;;;;8.47;46.12;102562.13;5054506;28;20569;-77
2022/12/28 05:56:04;;;;;;;13.93;6.80;;;;;;;8.19;46.75;102553.50;5053386;28;20392;-77
2022/12/28 05:58:30;;;;;;;15.45;7.63;;;;;;;8.01;47.29;102553.00;5053724;28;20404;-77
2022/12/28 06:01:10;;;;;;;17.55;9.75;;;;;;;7.91;47.84;102551.13;5052555;28;20392;-78
2022/12/28 06:03:36;;;;;;;12.13;4.88;;;;;;;7.98;47.71;102553.22;5055208;28;20395;-77
2022/12/28 06:06:04;;;;;;;12.48;6.75;;;;;;;7.96;47.85;102548.97;5055071;28;20391;-77
2022/12/28 06:08:30;;;;;;;9.82;6.43;;;;;;;8.11;46.86;102550.53;5053183;28;20401;-77
2022/12/28 06:10:59;;;;;;;16.67;9.00;;;;;;;8.21;46.80;102556.88;5053146;28;20423;-77
2022/12/28 06:13:25;;;;;;;14.80;7.10;;;;;;;8.12;46.75;102549.59;5054154;28;20493;-77
2022/12/28 06:15:50;;;;;;;17.97;9.20;;;;;;;7.97;47.09;102558.59;5051698;28;20412;-77
2022/12/28 06:18:16;;;;;;;18.70;10.40;;;;;;;7.89;47.66;102558.31;5052438;28;20406;-77
2022/12/28 06:20:41;;;;;;;20.00;11.00;;;;;;;7.92;47.74;102566.81;5054175;28;20424;-76
2022/12/28 06:23:06;;;;;;;14.45;9.32;;;;;;;7.88;48.38;102565.34;5055500;28;20403;-76
2022/12/28 06:25:32;;;;;;;18.63;9.83;;;;;;;7.81;48.87;102569.38;5052495;28;20952;-77
2022/12/28 06:27:58;;;;;;;19.90;11.13;;;;;;;7.72;49.41;102567.38;5051471;28;20392;-77
2022/12/28 06:30:23;;;;;;;20.53;11.80;;;;;;;7.83;49.49;102567.47;5051332;28;20929;-77
2022/12/28 06:32:49;;;;;;;18.23;10.73;;;;;;;7.94;49.47;102562.31;5049518;28;20490;-77
2022/12/28 06:35:14;;;;;;;16.47;10.50;;;;;;;8.00;49.69;102566.31;5051788;28;20432;-77
2022/12/28 06:37:40;;;;;;;18.30;11.20;;;;;;;7.99;49.66;102567.25;5052752;28;20903;-76
2022/12/28 06:40:06;;;;;;;19.93;11.20;;;;;;;8.05;49.62;102564.19;5052916;28;20412;-77
2022/12/28 06:42:31;;;;;;;26.77;15.30;;;;;;;8.15;49.55;102572.31;5053472;28;20393;-79
2022/12/28 06:44:56;;;;;;;23.60;13.67;;;;;;;8.20;49.56;102564.91;5053070;28;20466;-77
2022/12/28 06:47:22;;;;;;;19.63;11.73;;;;;;;8.25;49.16;102568.06;5053025;28;20400;-77
2022/12/28 06:49:47;;;;;;;26.03;12.10;;;;;;;8.34;49.15;102569.22;5053890;28;20387;-77
2022/12/28 06:52:13;;;;;;;24.88;13.05;;;;;;;8.32;49.18;102574.59;5051902;28;20404;-77
2022/12/28 06:54:38;;;;;;;74.47;38.30;;;;;;;8.19;49.31;102569.34;5052236;28;20917;-77
2022/12/28 06:57:04;;;;;;;36.03;21.13;;;;;;;8.14;49.64;102552.09;5052262;28;20412;-77
2022/12/28 06:59:29;;;;;;;34.47;22.15;;;;;;;8.13;49.63;102558.38;5053144;28;20388;-77
2022/12/28 07:01:54;;;;;;;39.27;24.83;;;;;;;8.10;50.02;102550.66;5051763;28;20458;-79
2022/12/28 07:04:20;;;;;;;34.43;19.73;;;;;;;8.27;49.72;102549.47;5053441;28;20392;-78
2022/12/28 07:06:45;;;;;;;32.75;20.58;;;;;;;8.41;49.14;102549.31;5054328;28;20510;-78
2022/12/28 07:09:14;;;;;;;35.87;20.90;;;;;;;8.53;49.18;102552.91;5052625;28;20403;-77
2022/12/28 07:11:40;;;;;;;47.63;27.92;;;;;;;8.56;49.21;102555.31;5053229;28;20506;-77
2022/12/28 07:14:06;;;;;;;93.17;49.43;;;;;;;8.64;48.86;102549.47;5053323;28;20845;-78
2022/12/28 07:16:31;;;;;;;78.00;44.77;;;;;;;8.60;49.63;102557.63;5052553;28;20458;-77
2022/12/28 07:18:58;;;;;;;47.03;26.83;;;;;;;8.58;49.28;102556.06;5053222;28;20418;-77
2022/12/28 07:21:33;;;;;;;27.40;17.13;;;;;;;8.59;49.45;102563.88;5051432;28;20405;-77
2022/12/28 07:23:58;;;;;;;31.85;19.25;;;;;;;8.60;49.63;102549.69;5049861;28;20407;-77
2022/12/28 07:26:26;;;;;;;37.00;22.17;;;;;;;8.73;49.17;102548.78;5052444;28;20398;-76
2022/12/28 07:28:54;;;;;;;34.17;20.23;;;;;;;8.91;48.78;102559.81;5053767;28;20388;-78
2022/12/28 07:31:22;;;;;;;92.13;43.22;;;;;;;8.97;48.64;102560.22;5053415;28;20400;-75
2022/12/28 07:33:50;;;;;;;93.20;44.00;;;;;;;9.05;48.27;102564.94;5053273;28;20408;-78
2022/12/28 07:36:18;;;;;;;75.28;37.92;;;;;;;9.13;48.60;102564.38;5052235;28;20385;-77
2022/12/28 07:38:44;;;;;;;44.95;24.90;;;;;;;9.21;48.08;102569.09;5052005;28;20392;-76
2022/12/28 07:41:14;;;;;;;37.33;20.73;;;;;;;9.14;48.21;102566.88;5052631;28;20407;-78
2022/12/28 07:43:40;;;;;;;27.55;15.80;;;;;;;9.19;48.76;102572.66;5049473;28;20392;-77
2022/12/28 07:46:12;;;;;;;30.90;17.77;;;;;;;9.24;48.49;102577.63;5052589;28;20393;-79
2022/12/28 07:48:38;;;;;;;24.13;14.20;;;;;;;9.36;48.36;102573.19;5053951;28;20391;-80
2022/12/28 07:51:07;;;;;;;20.27;10.82;;;;;;;9.44;47.93;102580.59;5054285;28;20380;-77
2022/12/28 07:53:33;;;;;;;24.35;14.15;;;;;;;9.48;47.93;102577.56;5052740;28;20435;-78
2022/12/28 07:55:59;;;;;;;20.92;12.88;;;;;;;9.52;47.52;102573.72;5051660;28;20463;-77
2022/12/28 07:58:25;;;;;;;23.33;13.50;;;;;;;9.48;47.45;102572.28;5052763;28;20994;-76
2022/12/28 08:00:51;;;;;;;28.87;16.13;;;;;;;9.52;47.83;102568.41;5049340;28;20472;-77
2022/12/28 08:03:17;;;;;;;31.00;18.73;;;;;;;9.53;47.89;102562.19;5050176;28;20392;-77
2022/12/28 08:05:44;;;;;;;25.58;16.45;;;;;;;9.62;47.03;102573.88;5047904;28;20389;-77
2022/12/28 08:08:10;;;;;;;25.00;15.45;;;;;;;9.61;46.51;102566.88;5051065;28;20396;-78
2022/12/28 08:10:35;;;;;;;18.00;12.95;;;;;;;9.70;46.46;102574.09;5051275;28;20399;-76
2022/12/28 08:13:01;;;;;;;23.50;14.50;;;;;;;9.76;46.00;102578.13;5052537;28;20471;-77
2022/12/28 08:15:27;;;;;;;21.10;11.97;;;;;;;9.62;45.31;102580.97;5050268;28;20907;-78
2022/12/28 08:17:53;;;;;;;22.13;13.00;;;;;;;9.58;44.97;102580.38;5045735;28;20802;-77
2022/12/28 08:20:19;;;;;;;17.52;10.55;;;;;;;9.79;46.23;102580.50;5047587;28;20376;-78
2022/12/28 08:22:45;;;;;;;18.80;10.60;;;;;;;9.90;45.39;102566.44;5055813;28;20403;-78
2022/12/28 08:25:10;;;;;;;55.73;32.47;;;;;;;9.92;45.05;102575.09;5052154;28;20471;-77
2022/12/28 08:27:36;;;;;;;37.65;23.20;;;;;;;9.96;44.05;102573.91;5053717;28;20403;-77
2022/12/28 08:30:02;;;;;;;24.93;16.10;;;;;;;9.90;43.47;102572.59;5053520;28;20380;-77
2022/12/28 08:32:28;;;;;;;19.98;14.00;;;;;;;9.79;43.74;102572.56;5050596;28;20916;-76
2022/12/28 08:34:53;;;;;;;22.70;14.10;;;;;;;9.90;43.21;102577.88;5050293;28;20392;-77
2022/12/28 08:37:19;;;;;;;44.70;26.07;;;;;;;10.09;43.42;102577.28;5042546;28;20862;-76
2022/12/28 08:39:44;;;;;;;39.58;22.10;;;;;;;10.19;42.94;102574.75;5048911;28;20741;-76
2022/12/28 08:42:09;;;;;;;16.27;9.30;;;;;;;10.20;42.59;102580.88;5051400;28;20396;-78
2022/12/28 08:44:35;;;;;;;21.37;12.60;;;;;;;10.25;41.78;102579.56;5051376;28;20483;-77
2022/12/28 08:47:00;;;;;;;14.27;8.90;;;;;;;10.03;41.89;102583.06;5043947;28;20831;-77
2022/12/28 08:49:26;;;;;;;9.77;4.80;;;;;;;10.07;41.50;102570.41;5045876;28;20393;-78
2022/12/28 08:51:51;;;;;;;13.27;7.25;;;;;;;10.01;41.74;102576.19;5047678;28;20419;-78
2022/12/28 08:54:19;;;;;;;10.82;5.85;;;;;;;10.13;41.27;102569.91;5047887;28;20426;-77
2022/12/28 08:56:45;;;;;;;7.63;4.33;;;;;;;10.26;40.67;102577.75;5041341;28;20406;-76
2022/12/28 08:59:14;;;;;;;4.83;2.70;;;;;;;10.18;39.78;102567.75;5044746;28;20964;-78
2022/12/28 09:01:40;;;;;;;4.75;2.60;;;;;;;10.08;38.89;102569.44;5046734;28;20393;-77
2022/12/28 09:04:07;;;;;;;6.10;3.37;;;;;;;10.19;38.83;102576.53;5040975;28;20395;-79
2022/12/28 09:06:37;;;;;;;4.67;2.57;;;;;;;10.27;38.86;102577.63;5027797;28;20435;-77
2022/12/28 09:09:05;;;;;;;3.40;2.03;;;;;;;10.28;38.20;102563.41;5042381;28;20395;-76
2022/12/28 09:11:31;;;;;;;5.18;2.25;;;;;;;10.38;37.66;102562.72;5041580;28;20383;-76
2022/12/28 09:13:57;;;;;;;4.88;2.90;;;;;;;10.17;37.41;102566.06;5042575;28;20446;-78
2022/12/28 09:16:26;;;;;;;6.97;3.97;;;;;;;10.36;37.40;102569.94;5044527;28;20394;-77
2022/12/28 09:18:57;;;;;;;4.20;2.55;;;;;;;10.21;37.44;102564.88;5051341;28;20393;-77
2022/12/28 09:21:25;;;;;;;3.70;2.33;;;;;;;10.35;37.61;102576.19;5046077;28;20384;-78
2022/12/28 09:23:51;;;;;;;4.85;2.95;;;;;;;10.42;37.51;102550.88;5040511;28;20415;-77
2022/12/28 09:26:19;;;;;;;6.22;4.32;;;;;;;10.53;37.28;102545.53;5039987;28;20398;-77
2022/12/28 09:28:51;;;;;;;5.07;3.57;;;;;;;10.59;37.81;102536.25;5040899;28;20403;-76
2022/12/28 09:31:19;;;;;;;4.72;2.63;;;;;;;10.57;37.64;102541.69;5040492;28;20396;-77
2022/12/28 09:34:00;;;;;;;4.60;2.58;;;;;;;10.52;38.19;102543.88;5050003;28;20401;-78
2022/12/28 09:36:32;;;;;;;7.72;4.03;;;;;;;10.43;38.31;102545.47;5033369;28;20388;-76
2022/12/28 09:39:00;;;;;;;4.63;2.28;;;;;;;10.32;38.48;102542.84;5038506;28;20378;-77
2022/12/28 09:41:30;;;;;;;5.65;3.22;;;;;;;10.14;38.76;102543.31;5036313;28;20442;-77
2022/12/28 09:44:14;;;;;;;5.13;3.30;;;;;;;10.39;38.62;102541.38;5033521;28;20431;-77
2022/12/28 09:46:41;;;;;;;6.50;3.47;;;;;;;10.57;38.42;102533.75;5037017;28;20717;-77
2022/12/28 09:49:16;;;;;;;6.60;3.85;;;;;;;10.54;38.33;102525.19;5035857;28;20443;-77
2022/12/28 09:51:51;;;;;;;5.95;3.53;;;;;;;10.43;38.38;102521.59;5045798;28;20392;-77
2022/12/28 09:54:17;;;;;;;6.30;3.97;;;;;;;10.24;37.88;102521.38;5045881;28;20413;-76
2022/12/28 09:56:46;;;;;;;6.28;3.63;;;;;;;10.32;37.94;102524.28;5033388;28;20460;-76
2022/12/28 09:59:17;;;;;;;8.13;4.20;;;;;;;10.29;38.14;102513.88;5051513;28;20781;-77
2022/12/28 10:01:45;;;;;;;6.47;3.80;;;;;;;10.20;37.54;102514.63;5035104;28;20401;-77
2022/12/28 10:04:11;;;;;;;5.60;3.13;;;;;;;10.30;37.95;102515.59;5030807;28;20388;-77
2022/12/28 10:06:39;;;;;;;5.55;2.58;;;;;;;10.04;37.67;102509.72;5059934;28;20392;-77
2022/12/28 10:09:12;;;;;;;5.95;3.35;;;;;;;10.24;37.98;102516.91;5050192;28;20388;-78
2022/12/28 10:11:43;;;;;;;5.75;2.85;;;;;;;10.29;37.60;102508.59;5048038;28;20377;-77
2022/12/28 10:14:25;;;;;;;9.55;3.75;;;;;;;10.22;37.93;102502.94;5036722;28;20405;-77
2022/12/28 10:16:50;;;;;;;5.30;2.65;;;;;;;10.12;38.67;102502.84;5033040;28;20465;-76
2022/12/28 10:19:19;;;;;;;7.65;3.20;;;;;;;10.08;38.57;102506.72;5041831;28;20813;-77
2022/12/28 10:21:46;;;;;;;5.10;2.67;;;;;;;10.10;38.57;102501.25;5022812;28;21233;-77
2022/12/28 10:24:13;;;;;;;6.63;3.22;;;;;;;10.21;38.90;102500.41;5025284;28;20373;-78
2022/12/28 10:26:41;;;;;;;6.13;3.67;;;;;;;10.12;38.75;102489.59;5022822;28;20383;-76
2022/12/28 10:29:19;;;;;;;5.25;2.40;;;;;;;10.01;39.16;102486.97;5021430;28;20393;-76
2022/12/28 10:32:05;;;;;;;6.05;2.97;;;;;;;9.60;39.94;102495.50;5033577;28;20367;-76
2022/12/28 10:34:33;;;;;;;7.53;4.10;;;;;;;9.92;39.72;102490.31;5046992;28;20415;-77
2022/12/28 10:37:07;;;;;;;10.27;3.80;;;;;;;10.12;39.40;102494.06;5044887;28;20380;-78
2022/12/28 10:39:33;;;;;;;8.38;3.42;;;;;;;10.07;39.47;102483.81;5048063;28;20418;-78
2022/12/28 10:41:59;;;;;;;8.07;3.90;;;;;;;9.79;39.63;102495.75;5048053;28;20373;-76
2022/12/28 10:44:31;;;;;;;5.70;2.83;;;;;;;9.96;39.26;102499.72;5064232;28;20400;-78
2022/12/28 10:46:58;;;;;;;7.95;3.20;;;;;;;9.95;39.76;102485.63;5035170;28;20391;-77
2022/12/28 10:49:26;;;;;;;7.82;3.67;;;;;;;10.11;39.57;102484.41;5050087;28;20381;-77
2022/12/28 10:52:06;;;;;;;4.72;2.55;;;;;;;9.97;39.23;102482.84;5047643;28;20368;-77
2022/12/28 10:54:35;;;;;;;6.13;3.78;;;;;;;9.88;39.30;102483.59;5041684;28;20452;-78
2022/12/28 10:57:02;;;;;;;7.05;3.80;;;;;;;10.00;39.82;102493.22;5044850;28;20392;-78
2022/12/28 10:59:29;;;;;;;7.50;4.15;;;;;;;10.19;39.61;102489.09;5044363;28;20806;-77
2022/12/28 11:02:20;;;;;;;11.98;5.65;;;;;;;10.40;39.99;102489.19;5045418;28;20392;-77
2022/12/28 11:04:54;;;;;;;8.75;3.95;;;;;;;10.06;39.06;102495.38;5047345;28;20443;-76
2022/12/28 11:07:30;;;;;;;5.70;2.53;;;;;;;9.98;39.15;102481.91;5053104;28;20486;-77
2022/12/28 11:10:21;;;;;;;6.15;3.20;;;;;;;10.21;39.31;102468.59;5054885;28;20679;-80
2022/12/28 11:12:48;;;;;;;5.63;2.70;;;;;;;10.56;38.96;102470.22;5054931;28;20408;-79
2022/12/28 11:15:16;;;;;;;6.63;3.47;;;;;;;10.69;39.10;102471.72;5047772;28;20409;-78
2022/12/28 11:17:43;;;;;;;9.57;5.07;;;;;;;10.57;38.73;102472.75;5046682;28;20849;-77
2022/12/28 11:20:22;;;;;;;6.90;3.65;;;;;;;10.51;39.01;102462.63;5053119;28;20377;-78
2022/12/28 11:22:47;;;;;;;6.78;3.55;;;;;;;10.57;38.61;102472.75;5054035;28;20403;-78
2022/12/28 11:25:18;;;;;;;6.30;3.03;;;;;;;10.32;38.68;102466.81;5047475;28;20688;-77
2022/12/28 11:27:46;;;;;;;5.38;3.05;;;;;;;10.19;38.58;102470.53;5039298;28;20371;-77
2022/12/28 11:30:17;;;;;;;4.38;2.38;;;;;;;10.16;38.67;102465.50;5048232;28;20396;-77
2022/12/28 11:32:51;;;;;;;6.05;3.05;;;;;;;10.22;39.13;102468.47;5052918;28;20405;-78
2022/12/28 11:35:35;;;;;;;9.02;3.42;;;;;;;10.41;38.59;102465.22;5052386;28;20415;-77
2022/12/28 11:38:04;;;;;;;4.60;2.47;;;;;;;10.34;38.50;102458.72;5051124;28;20387;-78
2022/12/28 11:40:51;;;;;;;4.60;2.28;;;;;;;10.30;38.88;102459.94;5050767;28;20888;-76
2022/12/28 11:43:28;;;;;;;7.25;3.38;;;;;;;10.28;39.04;102454.75;5051224;28;20365;-79
2022/12/28 11:45:56;;;;;;;5.90;2.50;;;;;;;10.24;39.35;102450.63;5040912;28;20466;-79
2022/12/28 11:48:40;;;;;;;6.25;2.60;;;;;;;10.33;38.84;102442.00;5053124;28;20380;-79
2022/12/28 11:51:17;;;;;;;7.55;2.70;;;;;;;10.67;39.43;102447.13;5053209;28;20384;-79
2022/12/28 11:53:43;;;;;;;4.90;2.40;;;;;;;11.23;38.98;102437.16;5053356;28;20408;-80
2022/12/28 11:56:13;;;;;;;5.85;2.63;;;;;;;11.07;38.67;102438.50;5052262;28;20406;-78
2022/12/28 11:58:39;;;;;;;4.47;2.03;;;;;;;10.70;38.73;102433.63;5069059;28;20879;-79